createdAt,value
2023-02-25T00:00:14.748Z,1.98
2023-02-25T00:01:14.732Z,2.00
2023-02-25T00:02:14.770Z,2.00
2023-02-25T00:03:14.786Z,2.00
2023-02-25T00:04:14.690Z,2.00
2023-02-25T00:05:14.696Z,1.98
2023-02-25T00:06:14.703Z,1.98
2023-02-25T00:07:14.656Z,2.00
2023-02-25T00:08:14.666Z,2.02
2023-02-25T00:09:14.635Z,2.01
2023-02-25T00:10:14.623Z,2.01
2023-02-25T00:11:14.628Z,2.02
2023-02-25T00:12:14.619Z,2.02
2023-02-25T00:13:18.356Z,2.04
2023-02-25T00:14:14.579Z,2.05
2023-02-25T00:15:14.568Z,2.05
2023-02-25T00:16:14.599Z,2.07
2023-02-25T00:17:14.629Z,2.05
2023-02-25T00:18:14.551Z,2.04
2023-02-25T00:19:14.521Z,2.05
2023-02-25T00:20:14.515Z,2.05
2023-02-25T00:21:14.505Z,2.04
2023-02-25T00:22:14.498Z,2.04
2023-02-25T00:23:14.498Z,2.05
2023-02-25T00:24:16.833Z,2.04
2023-02-25T00:25:14.460Z,2.02
2023-02-25T00:26:14.491Z,2.04
2023-02-25T00:27:14.464Z,2.02
2023-02-25T00:28:14.456Z,2.04
2023-02-25T00:29:14.447Z,2.04
2023-02-25T00:30:14.427Z,2.07
2023-02-25T00:31:14.486Z,2.05
2023-02-25T00:32:14.577Z,2.05
2023-02-25T00:33:14.383Z,2.04
2023-02-25T00:34:14.369Z,2.04
2023-02-25T00:35:14.401Z,2.04
2023-02-25T00:36:14.355Z,2.04
2023-02-25T00:37:14.374Z,2.04
2023-02-25T00:38:16.270Z,2.04
2023-02-25T00:39:14.371Z,2.05
2023-02-25T00:40:14.303Z,2.04
2023-02-25T00:41:14.315Z,2.05
2023-02-25T00:42:14.290Z,2.04
2023-02-25T00:43:14.290Z,2.02
2023-02-25T00:44:14.275Z,2.01
2023-02-25T00:45:14.265Z,2.04
2023-02-25T00:46:14.272Z,2.04
2023-02-25T00:47:14.285Z,2.04
2023-02-25T00:48:14.225Z,2.01
2023-02-25T00:49:27.043Z,2.02
2023-02-25T00:50:14.213Z,2.02
2023-02-25T00:51:14.214Z,2.05
2023-02-25T00:52:14.191Z,2.04
2023-02-25T00:53:14.206Z,2.02
2023-02-25T00:54:14.171Z,2.02
2023-02-25T00:55:14.166Z,2.04
2023-02-25T00:56:14.155Z,2.04
2023-02-25T00:57:14.144Z,2.04
2023-02-25T00:58:14.155Z,2.05
2023-02-25T00:59:14.115Z,2.05
2023-02-25T01:00:14.117Z,2.04
2023-02-25T01:01:14.112Z,2.04
2023-02-25T01:02:14.083Z,2.04
2023-02-25T01:03:14.098Z,2.04
2023-02-25T01:04:14.076Z,2.04
2023-02-25T01:05:14.053Z,2.02
2023-02-25T01:06:14.064Z,2.04
2023-02-25T01:07:14.044Z,2.04
2023-02-25T01:08:14.024Z,2.01
2023-02-25T01:09:14.212Z,2.02
2023-02-25T01:10:13.994Z,2.02
2023-02-25T01:11:13.995Z,2.04
2023-02-25T01:12:13.976Z,2.05
2023-02-25T01:13:13.968Z,2.05
2023-02-25T01:14:13.954Z,2.05
2023-02-25T01:15:13.969Z,2.07
2023-02-25T01:16:14.098Z,2.05
2023-02-25T01:17:13.918Z,2.07
2023-02-25T01:18:13.915Z,2.05
2023-02-25T01:19:13.911Z,2.05
2023-02-25T01:20:13.905Z,2.05
2023-02-25T01:21:13.880Z,2.07
2023-02-25T01:22:13.897Z,2.05
2023-02-25T01:23:13.858Z,2.07
2023-02-25T01:24:13.844Z,2.07
2023-02-25T01:25:13.878Z,2.07
2023-02-25T01:26:13.833Z,2.07
2023-02-25T01:27:13.823Z,2.07
2023-02-25T01:28:13.808Z,2.08
2023-02-25T01:29:13.803Z,2.07
2023-02-25T01:30:13.810Z,2.07
2023-02-25T01:31:13.846Z,2.07
2023-02-25T01:32:14.112Z,2.07
2023-02-25T01:33:13.781Z,2.08
2023-02-25T01:34:13.756Z,2.08
2023-02-25T01:35:13.742Z,2.08
2023-02-25T01:36:13.732Z,2.08
2023-02-25T01:37:13.731Z,2.07
2023-02-25T01:38:13.704Z,2.07
2023-02-25T01:39:13.713Z,2.08
2023-02-25T01:40:13.686Z,2.07
2023-02-25T01:41:13.700Z,2.08
2023-02-25T01:42:13.662Z,2.07
2023-02-25T01:43:13.682Z,2.05
2023-02-25T01:44:13.668Z,2.05
2023-02-25T01:45:13.632Z,2.05
2023-02-25T01:46:13.651Z,2.05
2023-02-25T01:47:13.611Z,2.04
2023-02-25T01:48:13.602Z,2.04
2023-02-25T01:49:13.597Z,2.04
2023-02-25T01:50:13.592Z,2.05
2023-02-25T01:51:13.569Z,2.07
2023-02-25T01:52:13.586Z,2.05
2023-02-25T01:53:13.555Z,2.07
2023-02-25T01:54:13.557Z,2.05
2023-02-25T01:55:13.568Z,2.07
2023-02-25T01:56:13.512Z,2.05
2023-02-25T01:57:13.506Z,2.08
2023-02-25T01:58:13.530Z,2.07
2023-02-25T01:59:13.487Z,2.07
2023-02-25T02:00:13.479Z,2.05
2023-02-25T02:01:13.644Z,2.04
2023-02-25T02:02:13.515Z,2.04
2023-02-25T02:03:13.443Z,2.04
2023-02-25T02:04:13.451Z,2.04
2023-02-25T02:05:13.452Z,2.04
2023-02-25T02:06:13.417Z,2.02
2023-02-25T02:07:13.414Z,2.01
2023-02-25T02:08:13.405Z,2.04
2023-02-25T02:09:13.386Z,2.01
2023-02-25T02:10:13.378Z,2.02
2023-02-25T02:11:13.378Z,2.02
2023-02-25T02:12:13.382Z,2.02
2023-02-25T02:13:13.340Z,2.01
2023-02-25T02:14:13.336Z,2.02
2023-02-25T02:15:13.333Z,2.01
2023-02-25T02:16:13.369Z,2.04
2023-02-25T02:17:13.320Z,2.04
2023-02-25T02:18:13.305Z,2.04
2023-02-25T02:19:13.291Z,2.04
2023-02-25T02:20:13.384Z,2.04
2023-02-25T02:21:13.252Z,2.05
2023-02-25T02:22:13.259Z,2.05
2023-02-25T02:23:13.273Z,2.05
2023-02-25T02:24:13.228Z,2.05
2023-02-25T02:25:13.213Z,2.07
2023-02-25T02:26:13.206Z,2.07
2023-02-25T02:27:13.195Z,2.07
2023-02-25T02:28:13.184Z,2.08
2023-02-25T02:29:13.234Z,2.07
2023-02-25T02:30:13.163Z,2.08
2023-02-25T02:31:13.289Z,2.09
2023-02-25T02:32:13.316Z,2.09
2023-02-25T02:33:13.138Z,2.09
2023-02-25T02:34:13.133Z,2.08
2023-02-25T02:35:13.136Z,2.07
2023-02-25T02:36:13.105Z,2.05
2023-02-25T02:37:13.097Z,2.08
2023-02-25T02:38:13.085Z,2.08
2023-02-25T02:39:13.097Z,2.07
2023-02-25T02:40:13.087Z,2.08
2023-02-25T02:41:13.057Z,2.08
2023-02-25T02:42:13.045Z,2.07
2023-02-25T02:43:13.032Z,2.07
2023-02-25T02:44:13.040Z,2.08
2023-02-25T02:45:13.009Z,2.08
2023-02-25T02:46:13.069Z,2.08
2023-02-25T02:47:13.000Z,2.08
2023-02-25T02:48:13.001Z,2.07
2023-02-25T02:49:12.984Z,2.07
2023-02-25T02:50:12.957Z,2.05
2023-02-25T02:51:12.939Z,2.02
2023-02-25T02:52:12.952Z,2.05
2023-02-25T02:53:12.922Z,2.04
2023-02-25T02:54:12.931Z,2.05
2023-02-25T02:55:12.922Z,2.05
2023-02-25T02:56:12.892Z,2.05
2023-02-25T02:57:12.894Z,2.07
2023-02-25T02:58:12.880Z,2.07
2023-02-25T02:59:12.906Z,2.08
2023-02-25T03:00:12.911Z,2.05
2023-02-25T03:01:12.946Z,2.05
2023-02-25T03:02:12.827Z,2.07
2023-02-25T03:03:12.834Z,2.05
2023-02-25T03:04:12.864Z,2.05
2023-02-25T03:05:12.805Z,2.07
2023-02-25T03:06:12.787Z,2.08
2023-02-25T03:07:12.793Z,2.07
2023-02-25T03:08:12.757Z,2.07
2023-02-25T03:09:12.754Z,2.07
2023-02-25T03:10:12.740Z,2.08
2023-02-25T03:11:12.744Z,2.08
2023-02-25T03:12:12.733Z,2.08
2023-02-25T03:13:12.715Z,2.08
2023-02-25T03:14:12.710Z,2.07
2023-02-25T03:15:12.683Z,2.08
2023-02-25T03:16:12.736Z,2.08
2023-02-25T03:17:12.688Z,2.08
2023-02-25T03:18:12.645Z,2.07
2023-02-25T03:19:12.645Z,2.07
2023-02-25T03:20:12.638Z,2.08
2023-02-25T03:21:12.631Z,2.09
2023-02-25T03:22:12.612Z,2.11
2023-02-25T03:23:12.616Z,2.09
2023-02-25T03:24:12.594Z,2.14
2023-02-25T03:25:12.582Z,2.12
2023-02-25T03:26:12.590Z,2.14
2023-02-25T03:27:12.564Z,2.14
2023-02-25T03:28:12.566Z,2.14
2023-02-25T03:29:12.559Z,2.18
2023-02-25T03:30:12.579Z,2.18
2023-02-25T03:31:12.559Z,2.15
2023-02-25T03:32:12.670Z,2.15
2023-02-25T03:33:12.510Z,2.15
2023-02-25T03:34:12.528Z,2.15
2023-02-25T03:35:12.493Z,2.15
2023-02-25T03:36:12.474Z,2.14
2023-02-25T03:37:12.461Z,2.14
2023-02-25T03:38:12.460Z,2.11
2023-02-25T03:39:12.449Z,2.11
2023-02-25T03:40:12.447Z,2.11
2023-02-25T03:41:12.437Z,2.08
2023-02-25T03:42:12.433Z,2.09
2023-02-25T03:43:12.398Z,2.07
2023-02-25T03:44:12.393Z,2.07
2023-02-25T03:45:12.376Z,2.07
2023-02-25T03:46:12.499Z,2.07
2023-02-25T03:47:12.365Z,2.07
2023-02-25T03:48:12.356Z,2.08
2023-02-25T03:49:12.346Z,2.09
2023-02-25T03:50:12.342Z,2.08
2023-02-25T03:51:12.314Z,2.08
2023-02-25T03:52:12.324Z,2.09
2023-02-25T03:53:12.295Z,2.09
2023-02-25T03:54:12.296Z,2.09
2023-02-25T03:55:12.282Z,2.08
2023-02-25T03:56:12.282Z,2.09
2023-02-25T03:57:12.286Z,2.11
2023-02-25T03:58:12.245Z,2.09
2023-02-25T03:59:12.235Z,2.08
2023-02-25T04:00:12.232Z,2.08
2023-02-25T04:01:12.235Z,2.08
2023-02-25T04:02:12.250Z,2.11
2023-02-25T04:03:12.223Z,2.11
2023-02-25T04:04:12.193Z,2.09
2023-02-25T04:05:12.176Z,2.11
2023-02-25T04:06:12.161Z,2.12
2023-02-25T04:07:12.167Z,2.12
2023-02-25T04:08:12.138Z,2.14
2023-02-25T04:09:12.161Z,2.12
2023-02-25T04:10:12.132Z,2.14
2023-02-25T04:11:12.110Z,2.15
2023-02-25T04:12:12.100Z,2.18
2023-02-25T04:13:12.096Z,2.18
2023-02-25T04:14:12.079Z,2.19
2023-02-25T04:15:12.091Z,2.19
2023-02-25T04:16:12.158Z,2.19
2023-02-25T04:17:12.054Z,2.18
2023-02-25T04:18:12.028Z,2.19
2023-02-25T04:19:12.025Z,2.20
2023-02-25T04:20:12.022Z,2.19
2023-02-25T04:21:12.040Z,2.20
2023-02-25T04:22:11.996Z,2.19
2023-02-25T04:23:11.985Z,2.20
2023-02-25T04:24:11.976Z,2.22
2023-02-25T04:25:12.020Z,2.20
2023-02-25T04:26:11.960Z,2.23
2023-02-25T04:27:11.956Z,2.22
2023-02-25T04:28:11.932Z,2.22
2023-02-25T04:29:11.928Z,2.22
2023-02-25T04:30:11.931Z,2.22
2023-02-25T04:31:12.072Z,2.22
2023-02-25T04:32:12.088Z,2.19
2023-02-25T04:33:12.045Z,2.18
2023-02-25T04:34:11.870Z,2.18
2023-02-25T04:35:11.857Z,2.18
2023-02-25T04:36:11.872Z,2.18
2023-02-25T04:37:11.848Z,2.18
2023-02-25T04:38:11.846Z,2.15
2023-02-25T04:39:11.822Z,2.18
2023-02-25T04:40:11.824Z,2.18
2023-02-25T04:41:11.823Z,2.18
2023-02-25T04:42:11.806Z,2.15
2023-02-25T04:43:11.799Z,2.15
2023-02-25T04:44:11.781Z,2.14
2023-02-25T04:45:11.764Z,2.15
2023-02-25T04:46:11.767Z,2.12
2023-02-25T04:47:11.747Z,2.15
2023-02-25T04:48:11.733Z,2.14
2023-02-25T04:49:11.774Z,2.12
2023-02-25T04:50:11.738Z,2.12
2023-02-25T04:51:11.693Z,2.12
2023-02-25T04:52:11.687Z,2.15
2023-02-25T04:53:11.681Z,2.14
2023-02-25T04:54:11.658Z,2.15
2023-02-25T04:55:11.680Z,2.15
2023-02-25T04:56:11.650Z,2.15
2023-02-25T04:57:11.634Z,2.15
2023-02-25T04:58:11.620Z,2.15
2023-02-25T04:59:11.615Z,2.14
2023-02-25T05:00:11.601Z,2.14
2023-02-25T05:01:11.614Z,2.14
2023-02-25T05:02:11.712Z,2.14
2023-02-25T05:03:11.586Z,2.14
2023-02-25T05:04:11.558Z,2.15
2023-02-25T05:05:11.615Z,2.11
2023-02-25T05:06:11.545Z,2.14
2023-02-25T05:07:11.544Z,2.14
2023-02-25T05:08:11.515Z,2.14
2023-02-25T05:09:11.512Z,2.14
2023-02-25T05:10:11.497Z,2.14
2023-02-25T05:11:11.520Z,2.14
2023-02-25T05:12:11.519Z,2.11
2023-02-25T05:13:11.461Z,2.12
2023-02-25T05:14:11.460Z,2.12
2023-02-25T05:15:11.456Z,2.14
2023-02-25T05:16:11.540Z,2.14
2023-02-25T05:17:11.420Z,2.14
2023-02-25T05:18:11.425Z,2.14
2023-02-25T05:19:11.414Z,2.14
2023-02-25T05:20:11.449Z,2.14
2023-02-25T05:21:11.382Z,2.14
2023-02-25T05:22:11.411Z,2.12
2023-02-25T05:23:11.358Z,2.15
2023-02-25T05:24:11.353Z,2.14
2023-02-25T05:25:11.402Z,2.12
2023-02-25T05:26:11.327Z,2.12
2023-02-25T05:27:11.318Z,2.11
2023-02-25T05:28:11.331Z,2.08
2023-02-25T05:29:11.310Z,2.07
2023-02-25T05:30:11.284Z,2.07
2023-02-25T05:31:11.510Z,2.05
2023-02-25T05:32:11.399Z,2.04
2023-02-25T05:33:11.278Z,2.02
2023-02-25T05:34:11.250Z,2.01
2023-02-25T05:35:11.230Z,2.00
2023-02-25T05:36:11.223Z,2.00
2023-02-25T05:37:11.238Z,2.01
2023-02-25T05:38:11.203Z,2.01
2023-02-25T05:39:11.210Z,2.05
2023-02-25T05:40:11.180Z,2.02
2023-02-25T05:41:11.214Z,2.04
2023-02-25T05:42:11.162Z,2.05
2023-02-25T05:43:11.157Z,2.05
2023-02-25T05:44:11.133Z,2.07
2023-02-25T05:45:11.127Z,2.05
2023-02-25T05:46:11.131Z,2.04
2023-02-25T05:47:11.265Z,2.05
2023-02-25T05:48:11.092Z,2.04
2023-02-25T05:49:11.116Z,2.08
2023-02-25T05:50:11.080Z,2.09
2023-02-25T05:51:11.068Z,2.07
2023-02-25T05:52:11.077Z,2.07
2023-02-25T05:53:11.061Z,2.01
2023-02-25T05:54:11.036Z,2.00
2023-02-25T05:55:11.034Z,2.00
2023-02-25T05:56:11.067Z,2.00
2023-02-25T05:57:10.998Z,1.98
2023-02-25T05:58:11.012Z,1.98
2023-02-25T05:59:11.004Z,1.98
2023-02-25T06:00:10.968Z,2.00
2023-02-25T06:01:10.913Z,1.98
2023-02-25T06:02:10.914Z,2.00
2023-02-25T06:03:10.985Z,1.98
2023-02-25T06:04:10.940Z,2.00
2023-02-25T06:05:10.951Z,1.98
2023-02-25T06:06:10.907Z,2.00
2023-02-25T06:07:10.865Z,2.00
2023-02-25T06:08:10.834Z,2.01
2023-02-25T06:09:10.827Z,2.01
2023-02-25T06:10:10.800Z,2.02
2023-02-25T06:11:10.804Z,2.04
2023-02-25T06:12:10.787Z,2.05
2023-02-25T06:13:10.813Z,2.05
2023-02-25T06:14:10.773Z,2.04
2023-02-25T06:15:10.758Z,2.07
2023-02-25T06:16:10.902Z,2.05
2023-02-25T06:17:10.736Z,2.05
2023-02-25T06:18:10.731Z,2.05
2023-02-25T06:19:10.734Z,2.05
2023-02-25T06:20:10.690Z,2.05
2023-02-25T06:21:10.688Z,2.07
2023-02-25T06:22:10.674Z,2.07
2023-02-25T06:23:10.698Z,2.05
2023-02-25T06:24:10.688Z,2.05
2023-02-25T06:25:10.649Z,2.07
2023-02-25T06:26:10.653Z,2.07
2023-02-25T06:27:10.626Z,2.07
2023-02-25T06:28:10.626Z,2.05
2023-02-25T06:29:10.656Z,2.07
2023-02-25T06:30:10.621Z,2.07
2023-02-25T06:31:10.645Z,2.05
2023-02-25T06:32:10.695Z,2.07
2023-02-25T06:33:10.566Z,2.05
2023-02-25T06:34:10.579Z,2.07
2023-02-25T06:35:10.551Z,2.08
2023-02-25T06:36:10.533Z,2.07
2023-02-25T06:37:10.519Z,2.05
2023-02-25T06:38:10.534Z,2.05
2023-02-25T06:39:10.537Z,2.09
2023-02-25T06:40:10.513Z,2.08
2023-02-25T06:41:10.493Z,2.07
2023-02-25T06:42:10.485Z,2.09
2023-02-25T06:43:10.461Z,2.08
2023-02-25T06:44:10.456Z,2.08
2023-02-25T06:45:10.461Z,2.09
2023-02-25T06:46:10.554Z,2.12
2023-02-25T06:47:10.449Z,2.12
2023-02-25T06:48:10.416Z,2.12
2023-02-25T06:49:10.397Z,2.15
2023-02-25T06:50:10.392Z,2.14
2023-02-25T06:51:10.379Z,2.14
2023-02-25T06:52:10.383Z,2.14
2023-02-25T06:53:10.398Z,2.14
2023-02-25T06:54:10.353Z,2.14
2023-02-25T06:55:10.335Z,2.18
2023-02-25T06:56:10.351Z,2.20
2023-02-25T06:57:10.325Z,2.19
2023-02-25T06:58:10.344Z,2.20
2023-02-25T06:59:10.300Z,2.22
2023-02-25T07:00:10.335Z,2.20
2023-02-25T07:01:10.345Z,2.22
2023-02-25T07:02:10.261Z,2.23
2023-02-25T07:03:10.254Z,2.20
2023-02-25T07:04:10.290Z,2.22
2023-02-25T07:05:10.242Z,2.22
2023-02-25T07:06:10.223Z,2.22
2023-02-25T07:07:10.230Z,2.23
2023-02-25T07:08:10.208Z,2.23
2023-02-25T07:09:10.208Z,2.27
2023-02-25T07:10:10.206Z,2.25
2023-02-25T07:11:10.185Z,2.22
2023-02-25T07:12:10.157Z,2.22
2023-02-25T07:13:10.156Z,2.23
2023-02-25T07:14:10.143Z,2.23
2023-02-25T07:15:10.142Z,2.19
2023-02-25T07:16:10.216Z,2.20
2023-02-25T07:17:10.120Z,2.22
2023-02-25T07:18:10.102Z,2.22
2023-02-25T07:19:10.088Z,2.22
2023-02-25T07:20:10.095Z,2.20
2023-02-25T07:21:10.086Z,2.20
2023-02-25T07:22:10.054Z,2.22
2023-02-25T07:23:10.056Z,2.20
2023-02-25T07:24:10.069Z,2.19
2023-02-25T07:25:10.096Z,2.23
2023-02-25T07:26:10.015Z,2.22
2023-02-25T07:27:10.017Z,2.25
2023-02-25T07:28:10.021Z,2.22
2023-02-25T07:29:09.997Z,2.22
2023-02-25T07:30:09.998Z,2.22
2023-02-25T07:31:10.111Z,2.22
2023-02-25T07:32:10.193Z,2.22
2023-02-25T07:33:09.968Z,2.20
2023-02-25T07:34:09.924Z,2.18
2023-02-25T07:35:09.921Z,2.18
2023-02-25T07:36:09.946Z,2.15
2023-02-25T07:37:09.917Z,2.19
2023-02-25T07:38:09.901Z,2.18
2023-02-25T07:39:09.890Z,2.15
2023-02-25T07:40:09.866Z,2.18
2023-02-25T07:41:09.904Z,2.14
2023-02-25T07:42:09.852Z,2.12
2023-02-25T07:43:09.858Z,2.12
2023-02-25T07:44:09.830Z,2.12
2023-02-25T07:45:09.819Z,2.11
2023-02-25T07:46:09.858Z,2.09
2023-02-25T07:47:09.819Z,2.08
2023-02-25T07:48:09.792Z,2.08
2023-02-25T07:49:09.817Z,2.07
2023-02-25T07:50:12.392Z,2.07
2023-02-25T07:51:09.785Z,2.05
2023-02-25T07:52:09.741Z,2.07
2023-02-25T07:53:09.744Z,2.08
2023-02-25T07:54:09.744Z,2.07
2023-02-25T07:55:09.739Z,2.07
2023-02-25T07:56:09.704Z,2.07
2023-02-25T07:57:09.709Z,2.05
2023-02-25T07:58:09.689Z,2.08
2023-02-25T07:59:09.683Z,2.05
2023-02-25T08:00:09.677Z,2.05
2023-02-25T08:01:09.653Z,2.02
2023-02-25T08:02:09.689Z,2.02
2023-02-25T08:03:09.651Z,2.04
2023-02-25T08:04:09.715Z,2.04
2023-02-25T08:05:09.607Z,2.01
2023-02-25T08:06:09.624Z,2.01
2023-02-25T08:07:09.589Z,2.02
2023-02-25T08:08:09.575Z,2.02
2023-02-25T08:09:09.611Z,2.04
2023-02-25T08:10:09.554Z,2.04
2023-02-25T08:11:09.565Z,2.05
2023-02-25T08:12:09.544Z,2.05
2023-02-25T08:13:09.550Z,2.05
2023-02-25T08:14:09.542Z,2.07
2023-02-25T08:15:09.534Z,2.08
2023-02-25T08:16:09.560Z,2.08
2023-02-25T08:17:09.496Z,2.09
2023-02-25T08:18:09.494Z,2.08
2023-02-25T08:19:09.469Z,2.08
2023-02-25T08:20:09.467Z,2.08
2023-02-25T08:21:09.495Z,2.11
2023-02-25T08:22:09.433Z,2.14
2023-02-25T08:23:09.427Z,2.18
2023-02-25T08:24:09.419Z,2.19
2023-02-25T08:25:09.484Z,2.20
2023-02-25T08:26:09.397Z,2.20
2023-02-25T08:27:09.418Z,2.19
2023-02-25T08:28:09.367Z,2.20
2023-02-25T08:29:09.360Z,2.19
2023-02-25T08:30:09.355Z,2.19
2023-02-25T08:31:09.406Z,2.22
2023-02-25T08:32:09.504Z,2.22
2023-02-25T08:33:09.338Z,2.25
2023-02-25T08:34:09.308Z,2.23
2023-02-25T08:35:09.304Z,2.25
2023-02-25T08:36:09.287Z,2.25
2023-02-25T08:37:09.304Z,2.26
2023-02-25T08:38:09.294Z,2.27
2023-02-25T08:39:09.271Z,2.30
2023-02-25T08:40:09.274Z,2.30
2023-02-25T08:41:09.236Z,2.30
2023-02-25T08:42:09.235Z,2.30
2023-02-25T08:43:09.212Z,2.29
2023-02-25T08:44:09.237Z,2.29
2023-02-25T08:45:09.206Z,2.27
2023-02-25T08:46:09.189Z,2.26
2023-02-25T08:47:09.171Z,2.27
2023-02-25T08:48:09.156Z,2.25
2023-02-25T08:49:09.150Z,2.29
2023-02-25T08:50:09.170Z,2.30
2023-02-25T08:51:09.133Z,2.30
2023-02-25T08:52:09.115Z,2.26
2023-02-25T08:53:09.110Z,2.26
2023-02-25T08:54:09.103Z,2.26
2023-02-25T08:55:09.088Z,2.29
2023-02-25T08:56:09.127Z,2.30
2023-02-25T08:57:09.068Z,2.30
2023-02-25T08:58:09.073Z,2.29
2023-02-25T08:59:09.071Z,2.26
2023-02-25T09:00:09.036Z,2.26
2023-02-25T09:01:09.269Z,2.25
2023-02-25T09:02:09.039Z,2.22
2023-02-25T09:03:09.009Z,2.19
2023-02-25T09:04:09.033Z,2.22
2023-02-25T09:05:08.999Z,2.22
2023-02-25T09:06:09.008Z,2.25
2023-02-25T09:07:08.969Z,2.23
2023-02-25T09:08:08.963Z,2.27
2023-02-25T09:09:08.940Z,2.25
2023-02-25T09:10:08.933Z,2.26
2023-02-25T09:11:08.952Z,2.26
2023-02-25T09:12:08.954Z,2.26
2023-02-25T09:13:08.899Z,2.26
2023-02-25T09:14:08.889Z,2.30
2023-02-25T09:15:08.899Z,2.30
2023-02-25T09:16:08.919Z,2.33
2023-02-25T09:17:08.865Z,2.32
2023-02-25T09:18:08.863Z,2.33
2023-02-25T09:19:08.868Z,2.33
2023-02-25T09:20:08.838Z,2.33
2023-02-25T09:21:08.837Z,2.30
2023-02-25T09:22:08.816Z,2.33
2023-02-25T09:23:08.818Z,2.30
2023-02-25T09:24:08.806Z,2.29
2023-02-25T09:25:08.804Z,2.30
2023-02-25T09:26:08.803Z,2.29
2023-02-25T09:27:08.770Z,2.29
2023-02-25T09:28:08.766Z,2.26
2023-02-25T09:29:08.752Z,2.23
2023-02-25T09:30:08.729Z,2.19
2023-02-25T09:31:08.778Z,2.09
2023-02-25T09:32:08.899Z,1.92
2023-02-25T09:33:08.911Z,1.75
2023-02-25T09:34:08.713Z,1.61
2023-02-25T09:35:08.675Z,1.49
2023-02-25T09:36:08.850Z,1.39
2023-02-25T09:37:08.671Z,1.32
2023-02-25T09:38:08.655Z,1.25
2023-02-25T09:39:08.645Z,1.13
2023-02-25T09:40:08.649Z,1.07
2023-02-25T09:41:08.649Z,1.02
2023-02-25T09:42:08.611Z,0.99
2023-02-25T09:43:08.605Z,1.00
2023-02-25T09:44:08.664Z,0.98
2023-02-25T09:45:08.579Z,0.98
2023-02-25T09:46:08.612Z,0.93
2023-02-25T09:47:08.587Z,0.92
2023-02-25T09:48:08.553Z,0.93
2023-02-25T09:49:08.545Z,0.93
2023-02-25T09:50:08.541Z,0.95
2023-02-25T09:51:08.518Z,0.96
2023-02-25T09:52:08.543Z,0.96
2023-02-25T09:53:08.502Z,0.96
2023-02-25T09:54:08.640Z,0.98
2023-02-25T09:55:08.480Z,0.99
2023-02-25T09:56:08.482Z,1.02
2023-02-25T09:57:08.474Z,1.02
2023-02-25T09:58:08.475Z,1.02
2023-02-25T09:59:08.442Z,1.07
2023-02-25T10:00:08.445Z,1.07
2023-02-25T10:01:08.435Z,1.11
2023-02-25T10:02:08.494Z,1.13
2023-02-25T10:03:08.732Z,1.18
2023-02-25T10:04:08.413Z,1.18
2023-02-25T10:05:08.391Z,1.21
2023-02-25T10:06:08.391Z,1.25
2023-02-25T10:07:08.371Z,1.31
2023-02-25T10:08:08.378Z,1.35
2023-02-25T10:09:08.351Z,1.38
2023-02-25T10:10:08.366Z,1.38
2023-02-25T10:11:08.338Z,1.36
2023-02-25T10:12:08.318Z,1.29
2023-02-25T10:13:08.309Z,1.18
2023-02-25T10:14:08.293Z,1.14
2023-02-25T10:15:08.285Z,1.07
2023-02-25T10:16:08.297Z,1.02
2023-02-25T10:17:08.361Z,0.96
2023-02-25T10:18:08.884Z,0.88
2023-02-25T10:19:08.264Z,0.82
2023-02-25T10:20:08.241Z,0.80
2023-02-25T10:21:08.266Z,0.75
2023-02-25T10:22:08.224Z,0.71
2023-02-25T10:23:08.218Z,0.70
2023-02-25T10:24:08.201Z,0.67
2023-02-25T10:25:08.195Z,0.67
2023-02-25T10:26:08.185Z,0.67
2023-02-25T10:27:08.192Z,0.67
2023-02-25T10:28:08.166Z,0.64
2023-02-25T10:29:08.153Z,0.68
2023-02-25T10:30:08.149Z,0.68
2023-02-25T10:31:08.335Z,0.67
2023-02-25T10:32:08.542Z,0.70
2023-02-25T10:33:08.131Z,0.70
2023-02-25T10:34:08.104Z,0.70
2023-02-25T10:35:08.128Z,0.70
2023-02-25T10:36:08.130Z,0.71
2023-02-25T10:37:08.098Z,0.75
2023-02-25T10:38:08.073Z,0.75
2023-02-25T10:39:08.078Z,0.78
2023-02-25T10:40:08.043Z,0.78
2023-02-25T10:41:08.040Z,0.80
2023-02-25T10:42:08.048Z,0.80
2023-02-25T10:43:08.028Z,0.82
2023-02-25T10:44:08.024Z,0.82
2023-02-25T10:45:08.035Z,0.82
2023-02-25T10:46:08.151Z,0.86
2023-02-25T10:47:07.980Z,0.86
2023-02-25T10:48:08.020Z,0.86
2023-02-25T10:49:15.725Z,0.89
2023-02-25T10:50:07.973Z,0.90
2023-02-25T10:51:07.963Z,0.90
2023-02-25T10:52:07.937Z,0.96
2023-02-25T10:53:07.919Z,0.95
2023-02-25T10:54:07.936Z,0.96
2023-02-25T10:55:07.930Z,0.99
2023-02-25T10:56:07.895Z,0.98
2023-02-25T10:57:07.880Z,0.98
2023-02-25T10:58:07.878Z,0.99
2023-02-25T10:59:07.891Z,1.00
2023-02-25T11:00:07.859Z,1.04
2023-02-25T11:01:07.876Z,1.08
2023-02-25T11:02:07.864Z,1.10
2023-02-25T11:03:07.821Z,1.11
2023-02-25T11:04:07.828Z,1.11
2023-02-25T11:05:07.823Z,1.13
2023-02-25T11:06:07.789Z,1.14
2023-02-25T11:07:07.790Z,1.16
2023-02-25T11:08:07.769Z,1.17
2023-02-25T11:09:07.755Z,1.20
2023-02-25T11:10:07.762Z,1.20
2023-02-25T11:11:07.761Z,1.18
2023-02-25T11:12:07.726Z,1.18
2023-02-25T11:13:07.752Z,1.24
2023-02-25T11:14:07.716Z,1.25
2023-02-25T11:15:07.785Z,1.26
2023-02-25T11:16:07.818Z,1.29
2023-02-25T11:17:08.562Z,1.32
2023-02-25T11:18:07.668Z,1.35
2023-02-25T11:19:07.664Z,1.36
2023-02-25T11:20:07.650Z,1.39
2023-02-25T11:21:07.651Z,1.44
2023-02-25T11:22:07.659Z,1.47
2023-02-25T11:23:07.614Z,1.49
2023-02-25T11:24:07.608Z,1.50
2023-02-25T11:25:07.608Z,1.52
2023-02-25T11:26:07.585Z,1.53
2023-02-25T11:27:07.575Z,1.52
2023-02-25T11:28:07.598Z,1.53
2023-02-25T11:29:07.562Z,1.50
2023-02-25T11:30:07.558Z,1.50
2023-02-25T11:31:07.749Z,1.50
2023-02-25T11:32:07.672Z,1.52
2023-02-25T11:33:07.518Z,1.53
2023-02-25T11:34:07.522Z,1.53
2023-02-25T11:35:07.498Z,1.52
2023-02-25T11:36:07.488Z,1.50
2023-02-25T11:37:09.077Z,1.50
2023-02-25T11:38:07.489Z,1.49
2023-02-25T11:39:07.450Z,1.44
2023-02-25T11:40:07.452Z,1.44
2023-02-25T11:41:07.434Z,1.46
2023-02-25T11:42:07.419Z,1.44
2023-02-25T11:43:07.418Z,1.44
2023-02-25T11:44:07.444Z,1.43
2023-02-25T11:45:07.392Z,1.43
2023-02-25T11:46:07.414Z,1.46
2023-02-25T11:47:07.372Z,1.47
2023-02-25T11:48:07.377Z,1.49
2023-02-25T11:49:07.354Z,1.50
2023-02-25T11:50:07.375Z,1.54
2023-02-25T11:51:07.332Z,1.57
2023-02-25T11:52:07.346Z,1.61
2023-02-25T11:53:07.315Z,1.70
2023-02-25T11:54:07.296Z,1.75
2023-02-25T11:55:09.005Z,1.81
2023-02-25T11:56:07.317Z,1.82
2023-02-25T11:57:07.276Z,1.85
2023-02-25T11:58:07.259Z,1.82
2023-02-25T11:59:07.266Z,1.83
2023-02-25T12:00:07.251Z,1.82
2023-02-25T12:01:07.229Z,1.74
2023-02-25T12:02:07.244Z,1.72
2023-02-25T12:03:07.348Z,1.72
2023-02-25T12:04:07.202Z,1.70
2023-02-25T12:05:07.187Z,1.68
2023-02-25T12:06:07.181Z,1.67
2023-02-25T12:07:07.194Z,1.65
2023-02-25T12:08:13.706Z,1.64
2023-02-25T12:09:07.153Z,1.65
2023-02-25T12:10:07.148Z,1.64
2023-02-25T12:11:07.130Z,1.63
2023-02-25T12:12:07.125Z,1.61
2023-02-25T12:13:07.133Z,1.60
2023-02-25T12:14:07.098Z,1.54
2023-02-25T12:15:07.084Z,1.54
2023-02-25T12:16:07.144Z,1.54
2023-02-25T12:17:07.075Z,1.53
2023-02-25T12:18:07.092Z,1.50
2023-02-25T12:19:07.066Z,1.50
2023-02-25T12:20:07.038Z,1.50
2023-02-25T12:21:07.038Z,1.52
2023-02-25T12:22:07.017Z,1.47
2023-02-25T12:23:07.007Z,1.49
2023-02-25T12:24:07.007Z,1.53
2023-02-25T12:25:07.009Z,1.54
2023-02-25T12:26:06.979Z,1.60
2023-02-25T12:27:06.974Z,1.60
2023-02-25T12:28:06.961Z,1.67
2023-02-25T12:29:06.958Z,1.65
2023-02-25T12:30:06.957Z,1.67
2023-02-25T12:31:07.012Z,1.65
2023-02-25T12:32:07.034Z,1.65
2023-02-25T12:33:06.915Z,1.65
2023-02-25T12:34:06.902Z,1.64
2023-02-25T12:35:06.933Z,1.64
2023-02-25T12:36:06.889Z,1.64
2023-02-25T12:37:06.878Z,1.64
2023-02-25T12:38:06.856Z,1.63
2023-02-25T12:39:06.853Z,1.61
2023-02-25T12:40:06.839Z,1.61
2023-02-25T12:41:06.850Z,1.60
2023-02-25T12:42:06.819Z,1.61
2023-02-25T12:43:06.843Z,1.61
2023-02-25T12:44:06.803Z,1.60
2023-02-25T12:45:06.850Z,1.57
2023-02-25T12:46:06.812Z,1.61
2023-02-25T12:47:06.770Z,1.64
2023-02-25T12:48:06.766Z,1.68
2023-02-25T12:49:06.762Z,1.70
2023-02-25T12:50:06.808Z,1.74
2023-02-25T12:51:06.748Z,1.79
2023-02-25T12:52:06.753Z,1.82
2023-02-25T12:53:06.723Z,1.81
2023-02-25T12:54:06.706Z,1.77
2023-02-25T12:55:06.693Z,1.74
2023-02-25T12:56:06.685Z,1.72
2023-02-25T12:57:06.671Z,1.72
2023-02-25T12:58:06.679Z,1.71
2023-02-25T12:59:06.654Z,1.70
2023-02-25T13:00:06.652Z,1.68
2023-02-25T13:01:06.651Z,1.67
2023-02-25T13:02:06.625Z,1.65
2023-02-25T13:03:06.617Z,1.70
2023-02-25T13:04:06.750Z,1.71
2023-02-25T13:05:06.598Z,1.74
2023-02-25T13:17:42.373Z,1.92
2023-02-25T13:18:43.368Z,1.93
2023-02-25T13:19:43.349Z,1.95
2023-02-25T13:20:43.348Z,2.00
2023-02-25T13:21:43.438Z,1.98
2023-02-25T13:22:43.330Z,2.00
2023-02-25T13:23:43.298Z,2.00
2023-02-25T13:24:43.287Z,2.01
2023-02-25T13:25:43.285Z,2.02
2023-02-25T13:26:43.274Z,2.04
2023-02-25T13:27:43.272Z,2.02
2023-02-25T13:28:43.270Z,2.02
2023-02-25T13:29:43.250Z,2.07